createdAt,value
2024-01-19T00:02:12.520Z,67.11
2024-01-19T00:04:41.578Z,67.62
2024-01-19T00:07:08.338Z,67.02
2024-01-19T00:09:35.064Z,67.47
2024-01-19T00:12:03.906Z,67.57
2024-01-19T00:14:32.812Z,67.04
2024-01-19T00:16:59.662Z,67.79
2024-01-19T00:19:33.494Z,67.61
2024-01-19T00:22:00.266Z,67.31
2024-01-19T00:24:26.895Z,67.12
2024-01-19T00:26:55.581Z,67.43
2024-01-19T00:29:23.012Z,67.30
2024-01-19T00:31:49.807Z,67.41
2024-01-19T00:34:17.849Z,67.72
2024-01-19T00:36:44.634Z,67.90
2024-01-19T00:39:11.420Z,67.60
2024-01-19T00:41:38.155Z,67.17
2024-01-19T00:44:09.788Z,68.27
2024-01-19T00:46:36.428Z,68.19
2024-01-19T00:49:03.401Z,68.17
2024-01-19T00:51:30.218Z,67.74
2024-01-19T00:53:59.162Z,68.13
2024-01-19T00:56:25.871Z,67.81
2024-01-19T00:58:52.579Z,67.56
2024-01-19T01:01:19.399Z,67.84
2024-01-19T01:03:46.254Z,67.81
2024-01-19T01:06:12.977Z,67.70
2024-01-19T01:08:39.814Z,67.68
2024-01-19T01:11:06.984Z,67.61
2024-01-19T01:13:34.015Z,68.00
2024-01-19T01:16:02.226Z,68.14
2024-01-19T01:18:29.055Z,67.70
2024-01-19T01:20:55.796Z,67.85
2024-01-19T01:23:22.645Z,67.51
2024-01-19T01:25:49.622Z,67.83
2024-01-19T01:28:16.487Z,67.48
2024-01-19T01:30:43.468Z,67.72
2024-01-19T01:33:10.563Z,67.77
2024-01-19T01:35:37.533Z,68.34
2024-01-19T01:38:05.198Z,68.18
2024-01-19T01:40:32.158Z,67.96
2024-01-19T01:43:01.874Z,68.03
2024-01-19T01:45:29.264Z,67.55
2024-01-19T01:47:59.032Z,68.05
2024-01-19T01:50:25.901Z,67.65
2024-01-19T01:52:56.229Z,68.11
2024-01-19T01:55:26.409Z,67.84
2024-01-19T01:57:55.455Z,68.20
2024-01-19T02:00:22.709Z,68.43
2024-01-19T02:02:49.667Z,68.52
2024-01-19T02:05:17.202Z,67.63
2024-01-19T02:07:44.068Z,68.45
2024-01-19T02:10:10.980Z,68.48
2024-01-19T02:12:38.496Z,68.26
2024-01-19T02:15:05.480Z,68.80
2024-01-19T02:17:32.192Z,68.55
2024-01-19T02:19:58.929Z,68.21
2024-01-19T02:22:25.759Z,68.51
2024-01-19T02:24:54.868Z,68.41
2024-01-19T02:27:21.972Z,68.50
2024-01-19T02:29:52.169Z,67.95
2024-01-19T02:32:21.446Z,68.31
2024-01-19T02:34:48.212Z,68.23
2024-01-19T02:37:17.048Z,67.82
2024-01-19T02:39:46.346Z,67.83
2024-01-19T02:42:13.192Z,68.01
2024-01-19T02:44:39.848Z,68.29
2024-01-19T02:47:08.794Z,68.65
2024-01-19T02:49:35.532Z,68.30
2024-01-19T02:52:02.223Z,68.80
2024-01-19T02:54:28.816Z,68.80
2024-01-19T02:56:57.682Z,68.38
2024-01-19T02:59:26.478Z,68.58
2024-01-19T03:01:53.162Z,68.04
2024-01-19T03:04:19.790Z,68.67
2024-01-19T03:06:46.516Z,68.00
2024-01-19T03:09:13.215Z,68.73
2024-01-19T03:11:39.909Z,68.97
2024-01-19T03:14:06.590Z,68.27
2024-01-19T03:16:33.270Z,68.69
2024-01-19T03:19:01.784Z,68.66
2024-01-19T03:21:28.737Z,68.14
2024-01-19T03:23:55.512Z,68.46
2024-01-19T03:26:22.424Z,68.21
2024-01-19T03:28:49.086Z,68.24
2024-01-19T03:31:15.733Z,68.40
2024-01-19T03:33:42.554Z,68.11
2024-01-19T03:36:09.346Z,67.93
2024-01-19T03:38:36.044Z,67.76
2024-01-19T03:41:02.748Z,68.44
2024-01-19T03:43:29.370Z,68.34
2024-01-19T03:45:58.996Z,67.87
2024-01-19T03:48:28.244Z,68.19
2024-01-19T03:50:55.231Z,67.93
2024-01-19T03:53:22.043Z,68.05
2024-01-19T03:55:49.854Z,68.30
2024-01-19T03:58:16.558Z,68.40
2024-01-19T04:00:46.340Z,68.72
2024-01-19T04:03:13.188Z,68.41
2024-01-19T04:05:40.038Z,68.43
2024-01-19T04:08:09.137Z,67.87
2024-01-19T04:10:38.501Z,68.05
2024-01-19T04:13:05.169Z,67.77
2024-01-19T04:15:32.445Z,68.13
2024-01-19T04:17:59.445Z,67.88
2024-01-19T04:20:28.388Z,67.75
2024-01-19T04:22:55.093Z,67.54
2024-01-19T04:25:24.787Z,68.10
2024-01-19T04:27:52.249Z,68.19
2024-01-19T04:30:18.929Z,67.98
2024-01-19T04:32:45.686Z,68.93
2024-01-19T04:35:12.487Z,69.40
2024-01-19T04:37:39.306Z,69.31
2024-01-19T04:40:06.263Z,69.65
2024-01-19T04:42:32.939Z,69.37
2024-01-19T04:44:59.649Z,69.58
2024-01-19T04:47:26.431Z,69.47
2024-01-19T04:49:53.079Z,69.74
2024-01-19T04:52:19.692Z,69.88
2024-01-19T04:54:48.579Z,69.73
2024-01-19T04:57:15.214Z,69.54
2024-01-19T04:59:41.852Z,69.87
2024-01-19T05:02:08.538Z,69.61
2024-01-19T05:04:35.289Z,69.89
2024-01-19T05:07:01.989Z,69.81
2024-01-19T05:09:36.102Z,69.04
2024-01-19T05:12:04.997Z,69.22
2024-01-19T05:14:32.033Z,69.20
2024-01-19T05:17:00.973Z,69.35
2024-01-19T05:19:29.753Z,69.71
2024-01-19T05:21:56.876Z,68.95
2024-01-19T05:24:23.511Z,68.64
2024-01-19T05:26:52.569Z,69.36
2024-01-19T05:29:22.856Z,68.87
2024-01-19T05:31:50.150Z,69.11
2024-01-19T05:34:19.190Z,68.54
2024-01-19T05:36:45.898Z,69.10
2024-01-19T05:39:14.775Z,69.70
2024-01-19T05:41:41.488Z,69.11
2024-01-19T05:44:08.121Z,69.08
2024-01-19T05:46:34.822Z,69.87
2024-01-19T05:49:04.103Z,69.94
2024-01-19T05:51:30.768Z,69.71
2024-01-19T05:53:57.448Z,69.54
2024-01-19T05:56:24.196Z,69.35
2024-01-19T05:58:50.902Z,69.67
2024-01-19T06:01:17.678Z,69.25
2024-01-19T06:03:44.393Z,69.62
2024-01-19T06:06:11.245Z,69.10
2024-01-19T06:08:38.122Z,70.18
2024-01-19T06:11:07.388Z,69.75
2024-01-19T06:13:34.150Z,69.66
2024-01-19T06:16:04.468Z,69.58
2024-01-19T06:18:31.196Z,69.83
2024-01-19T06:21:01.879Z,69.64
2024-01-19T06:23:28.825Z,69.76
2024-01-19T06:25:55.517Z,69.73
2024-01-19T06:28:22.482Z,69.15
2024-01-19T06:30:49.145Z,69.24
2024-01-19T06:33:17.940Z,69.42
2024-01-19T06:35:45.148Z,69.54
2024-01-19T06:38:11.926Z,69.97
2024-01-19T06:40:38.571Z,70.25
2024-01-19T06:43:07.503Z,69.94
2024-01-19T06:45:38.965Z,69.99
2024-01-19T06:48:07.894Z,69.63
2024-01-19T06:50:36.829Z,69.70
2024-01-19T06:53:05.349Z,69.50
2024-01-19T06:55:31.997Z,69.52
2024-01-19T06:58:00.865Z,69.37
2024-01-19T07:00:27.729Z,69.01
2024-01-19T07:02:55.749Z,69.62
2024-01-19T07:05:22.849Z,68.90
2024-01-19T07:07:50.046Z,69.52
2024-01-19T07:10:16.739Z,69.25
2024-01-19T07:12:43.465Z,69.23
2024-01-19T07:15:10.432Z,68.99
2024-01-19T07:17:39.585Z,69.82
2024-01-19T07:20:07.398Z,69.16
2024-01-19T07:22:37.769Z,69.33
2024-01-19T07:25:04.818Z,69.33
2024-01-19T07:27:31.619Z,69.22
2024-01-19T07:30:01.000Z,69.65
2024-01-19T07:32:28.046Z,69.58
2024-01-19T07:34:55.043Z,69.89
2024-01-19T07:37:22.078Z,69.80
2024-01-19T07:39:48.696Z,68.67
2024-01-19T07:42:17.924Z,69.85
2024-01-19T07:44:45.106Z,69.83
2024-01-19T07:47:12.422Z,69.08
2024-01-19T07:49:39.130Z,69.67
2024-01-19T07:52:08.785Z,69.23
2024-01-19T07:54:35.484Z,68.99
2024-01-19T07:57:02.313Z,69.69
2024-01-19T07:59:29.019Z,69.48
2024-01-19T08:01:55.866Z,69.84
2024-01-19T08:04:22.607Z,69.28
2024-01-19T08:06:51.693Z,68.89
2024-01-19T08:09:18.461Z,69.53
2024-01-19T08:11:45.166Z,69.72
2024-01-19T08:14:16.408Z,68.54
2024-01-19T08:16:46.407Z,69.08
2024-01-19T08:19:13.281Z,69.39
2024-01-19T08:21:43.750Z,69.60
2024-01-19T08:24:10.701Z,69.25
2024-01-19T08:26:39.563Z,69.36
2024-01-19T08:29:08.473Z,69.78
2024-01-19T08:31:35.184Z,69.42
2024-01-19T08:34:01.947Z,69.63
2024-01-19T08:36:28.601Z,69.38
2024-01-19T08:38:57.382Z,69.64
2024-01-19T08:41:26.019Z,69.22
2024-01-19T08:43:55.190Z,69.39
2024-01-19T08:46:24.407Z,69.74
2024-01-19T08:48:51.182Z,69.34
2024-01-19T08:51:29.688Z,69.49
2024-01-19T08:53:56.618Z,69.13
2024-01-19T08:56:27.947Z,69.64
2024-01-19T08:58:55.357Z,69.66
2024-01-19T09:01:22.083Z,69.56
2024-01-19T09:03:48.892Z,69.97
2024-01-19T09:06:16.308Z,69.47
2024-01-19T09:08:44.411Z,69.24
2024-01-19T09:11:12.324Z,69.22
2024-01-19T09:13:39.728Z,69.10
2024-01-19T09:16:10.789Z,69.08
2024-01-19T09:18:42.637Z,69.31
2024-01-19T09:21:17.049Z,69.48
2024-01-19T09:23:46.287Z,69.97
2024-01-19T09:26:20.352Z,70.21
2024-01-19T09:28:49.803Z,70.03
2024-01-19T09:31:16.913Z,70.29
2024-01-19T09:33:44.191Z,70.24
2024-01-19T09:36:11.254Z,69.62
2024-01-19T09:38:38.811Z,70.06
2024-01-19T09:41:24.344Z,70.06
2024-01-19T09:43:55.659Z,70.00
2024-01-19T09:46:31.867Z,70.24
2024-01-19T09:49:13.307Z,69.48
2024-01-19T09:52:00.375Z,69.76
2024-01-19T09:54:36.652Z,69.55
2024-01-19T09:57:06.225Z,70.09
2024-01-19T09:59:35.925Z,70.32
2024-01-19T10:02:07.506Z,69.96
2024-01-19T10:04:34.300Z,69.81
2024-01-19T10:07:03.006Z,69.07
2024-01-19T10:09:30.554Z,69.08
2024-01-19T10:11:57.298Z,68.67
2024-01-19T10:14:27.432Z,68.42
2024-01-19T10:16:54.292Z,69.12
2024-01-19T10:19:23.646Z,69.63
2024-01-19T10:21:55.358Z,68.89
2024-01-19T10:24:22.039Z,68.32
2024-01-19T10:26:57.133Z,68.21
2024-01-19T10:29:24.553Z,67.67
2024-01-19T10:31:55.417Z,67.32
2024-01-19T10:34:24.133Z,67.89
2024-01-19T10:36:52.833Z,68.17
2024-01-19T10:39:20.610Z,68.13
2024-01-19T10:41:49.029Z,67.84
2024-01-19T10:44:19.176Z,67.79
2024-01-19T10:46:46.185Z,68.07
2024-01-19T10:49:15.575Z,67.79
2024-01-19T10:51:46.101Z,66.91
2024-01-19T10:54:18.960Z,66.47
2024-01-19T10:56:46.924Z,66.53
2024-01-19T10:59:15.819Z,67.26
2024-01-19T11:01:43.634Z,67.03
2024-01-19T11:04:15.446Z,66.80
2024-01-19T11:06:42.277Z,67.07
2024-01-19T11:09:09.314Z,66.60
2024-01-19T11:11:55.026Z,67.06
2024-01-19T11:14:25.602Z,66.90
2024-01-19T11:16:56.732Z,67.27
2024-01-19T11:19:24.939Z,66.59
2024-01-19T11:21:52.211Z,66.18
2024-01-19T11:24:27.478Z,66.20
2024-01-19T11:27:07.952Z,65.03
2024-01-19T11:29:43.068Z,65.36
2024-01-19T11:32:15.404Z,65.30
2024-01-19T11:34:52.131Z,64.79
2024-01-19T11:37:46.909Z,64.96
2024-01-19T11:40:26.057Z,64.77
2024-01-19T11:42:53.320Z,64.69
2024-01-19T11:45:28.817Z,64.41
2024-01-19T11:47:58.252Z,63.79
2024-01-19T11:50:43.462Z,64.53
2024-01-19T11:53:13.090Z,64.48
2024-01-19T11:55:46.970Z,64.23
2024-01-19T11:58:30.953Z,64.33
2024-01-19T12:01:00.459Z,63.80
2024-01-19T12:03:28.240Z,64.42
2024-01-19T12:05:57.992Z,64.01
2024-01-19T12:08:25.169Z,64.21
2024-01-19T12:11:12.180Z,64.09
2024-01-19T12:13:48.624Z,63.88
2024-01-19T12:16:24.253Z,64.11
2024-01-19T12:18:55.954Z,64.30
2024-01-19T12:21:23.901Z,64.09
2024-01-19T12:24:00.295Z,63.88
2024-01-19T12:27:05.560Z,63.25
2024-01-19T12:29:36.913Z,63.86
2024-01-19T12:32:10.900Z,63.46
2024-01-19T12:34:38.532Z,63.81
2024-01-19T12:37:06.062Z,63.84
2024-01-19T12:39:34.989Z,63.76
2024-01-19T12:42:06.687Z,63.47
2024-01-19T12:44:33.888Z,63.39
2024-01-19T12:47:01.370Z,63.60
2024-01-19T12:49:28.562Z,63.57
2024-01-19T12:51:55.376Z,63.58
2024-01-19T12:54:22.183Z,63.14
2024-01-19T12:56:55.074Z,63.22
2024-01-19T12:59:23.489Z,62.36
2024-01-19T13:01:55.037Z,62.87
2024-01-19T13:04:24.486Z,62.59
2024-01-19T13:06:52.671Z,62.73
2024-01-19T13:09:19.463Z,62.97
2024-01-19T13:11:46.226Z,62.38
2024-01-19T13:14:15.113Z,62.89
2024-01-19T13:17:05.078Z,61.58
2024-01-19T13:19:31.875Z,61.91
2024-01-19T13:22:06.256Z,61.74
2024-01-19T13:24:33.280Z,62.06
2024-01-19T13:27:03.734Z,61.43
2024-01-19T13:29:33.792Z,61.54
2024-01-19T13:32:01.114Z,60.10
2024-01-19T13:34:29.780Z,60.78
2024-01-19T13:36:57.091Z,60.11
2024-01-19T13:39:23.844Z,60.30
2024-01-19T13:41:52.943Z,60.12
2024-01-19T13:44:19.717Z,60.30
2024-01-19T13:46:46.511Z,59.66
2024-01-19T13:49:13.458Z,60.09
2024-01-19T13:51:40.240Z,59.78
2024-01-19T13:54:09.339Z,60.00
2024-01-19T13:56:36.131Z,59.06
2024-01-19T13:59:02.883Z,59.59
2024-01-19T14:01:29.907Z,59.50
2024-01-19T14:03:59.103Z,59.54
2024-01-19T14:06:25.933Z,59.48
2024-01-19T14:08:53.852Z,58.97
2024-01-19T14:11:21.368Z,59.50
2024-01-19T14:13:49.504Z,59.42
2024-01-19T14:16:16.389Z,59.78
2024-01-19T14:18:45.591Z,59.56
2024-01-19T14:21:14.891Z,60.60
2024-01-19T14:23:41.635Z,60.77
2024-01-19T14:26:08.731Z,59.99
2024-01-19T14:28:35.673Z,60.38
2024-01-19T14:31:03.613Z,60.19
2024-01-19T14:33:32.610Z,60.59
2024-01-19T14:36:00.143Z,60.89
2024-01-19T14:38:29.310Z,60.32
2024-01-19T14:40:56.142Z,60.78
2024-01-19T14:43:23.006Z,60.94
2024-01-19T14:45:49.832Z,60.99
2024-01-19T14:48:17.600Z,60.70
2024-01-19T14:50:47.344Z,60.42
2024-01-19T14:53:18.172Z,60.78
2024-01-19T14:55:47.638Z,60.36
2024-01-19T14:58:14.504Z,60.38
2024-01-19T15:00:41.223Z,60.42
2024-01-19T15:03:10.359Z,61.35
2024-01-19T15:05:39.645Z,60.70
2024-01-19T15:08:11.374Z,60.76
2024-01-19T15:10:38.197Z,61.60
2024-01-19T15:13:08.868Z,60.77
2024-01-19T15:15:36.683Z,60.43
2024-01-19T15:18:05.687Z,61.80
2024-01-19T15:20:32.528Z,61.26
2024-01-19T15:23:03.914Z,61.60
2024-01-19T15:25:30.671Z,61.28
2024-01-19T15:27:59.627Z,60.99
2024-01-19T15:30:33.386Z,61.47
2024-01-19T15:33:03.785Z,62.08
2024-01-19T15:35:30.593Z,61.14
2024-01-19T15:37:57.324Z,62.40
2024-01-19T15:40:24.111Z,61.71
2024-01-19T15:42:50.834Z,61.96
2024-01-19T15:45:20.151Z,61.51
2024-01-19T15:47:46.965Z,62.22
2024-01-19T15:50:20.216Z,61.84
2024-01-19T15:52:47.195Z,62.62
2024-01-19T15:55:13.928Z,62.40
2024-01-19T15:57:42.859Z,62.80
2024-01-19T16:00:13.046Z,62.15
2024-01-19T16:02:40.525Z,62.32
2024-01-19T16:05:11.136Z,62.96
2024-01-19T16:07:41.521Z,62.77
2024-01-19T16:10:10.751Z,62.54
2024-01-19T16:12:37.576Z,62.43
2024-01-19T16:15:04.913Z,63.59
2024-01-19T16:17:38.547Z,62.20
2024-01-19T16:20:09.600Z,63.09
2024-01-19T16:22:36.530Z,63.24
2024-01-19T16:25:08.578Z,63.51
2024-01-19T16:27:36.178Z,62.36
2024-01-19T16:30:04.255Z,62.79
2024-01-19T16:32:33.449Z,62.72
2024-01-19T16:35:00.790Z,63.00
2024-01-19T16:37:27.809Z,62.79
2024-01-19T16:39:54.548Z,63.20
2024-01-19T16:42:21.238Z,63.38
2024-01-19T16:44:47.857Z,63.45
2024-01-19T16:47:14.667Z,62.89
2024-01-19T16:49:41.523Z,62.66
2024-01-19T16:52:08.591Z,62.60
2024-01-19T16:54:35.512Z,63.41
2024-01-19T16:57:08.015Z,63.21
2024-01-19T16:59:35.299Z,63.88
2024-01-19T17:02:02.027Z,63.43
2024-01-19T17:04:29.243Z,63.84
2024-01-19T17:07:00.850Z,63.16
2024-01-19T17:09:27.769Z,63.10
2024-01-19T17:11:54.698Z,63.38
2024-01-19T17:14:23.629Z,64.48
2024-01-19T17:16:50.729Z,63.57
2024-01-19T17:19:19.960Z,63.61
2024-01-19T17:21:48.089Z,63.40
2024-01-19T17:24:15.195Z,64.82
2024-01-19T17:26:44.682Z,64.17
2024-01-19T17:29:15.217Z,65.00
2024-01-19T17:31:42.593Z,63.96
2024-01-19T17:34:11.127Z,64.05
2024-01-19T17:36:41.678Z,64.72
2024-01-19T17:39:08.728Z,64.39
2024-01-19T17:41:39.934Z,65.16
2024-01-19T17:44:08.595Z,64.59
2024-01-19T17:46:37.856Z,64.09
2024-01-19T17:49:07.099Z,65.17
2024-01-19T17:51:34.035Z,64.75
2024-01-19T17:54:04.456Z,65.41
2024-01-19T17:56:32.510Z,64.69
2024-01-19T17:58:59.348Z,64.96
2024-01-19T18:01:28.345Z,65.50
2024-01-19T18:03:55.106Z,66.00
2024-01-19T18:06:22.007Z,65.63
2024-01-19T18:08:54.443Z,66.32
2024-01-19T18:11:21.601Z,65.81
2024-01-19T18:13:48.717Z,66.19
2024-01-19T18:16:22.993Z,66.05
2024-01-19T18:18:51.087Z,66.01
2024-01-19T18:21:18.083Z,65.75
2024-01-19T18:23:47.989Z,66.66
2024-01-19T18:26:15.324Z,66.21
2024-01-19T18:28:44.531Z,67.22
2024-01-19T18:31:12.071Z,66.40
2024-01-19T18:33:42.858Z,66.54
2024-01-19T18:36:11.349Z,66.23
2024-01-19T18:38:38.099Z,67.27
2024-01-19T18:41:05.036Z,67.24
2024-01-19T18:43:32.002Z,67.49
2024-01-19T18:46:00.888Z,66.59
2024-01-19T18:48:29.149Z,67.00
2024-01-19T18:50:55.969Z,67.07
2024-01-19T18:53:22.735Z,66.56
2024-01-19T18:55:54.451Z,67.75
2024-01-19T18:58:21.587Z,67.23
2024-01-19T19:00:49.019Z,66.87
2024-01-19T19:03:18.828Z,68.07
2024-01-19T19:05:49.976Z,67.78
2024-01-19T19:08:20.493Z,67.05
2024-01-19T19:10:49.525Z,67.36
2024-01-19T19:13:18.772Z,67.58
2024-01-19T19:15:45.633Z,67.96
2024-01-19T19:18:17.055Z,68.46
2024-01-19T19:20:47.334Z,68.15
2024-01-19T19:23:14.124Z,67.84
2024-01-19T19:25:41.134Z,68.23
2024-01-19T19:28:07.826Z,68.79
2024-01-19T19:30:34.778Z,68.77
2024-01-19T19:33:06.290Z,68.99
2024-01-19T19:35:33.034Z,68.17
2024-01-19T19:37:59.964Z,68.37
2024-01-19T19:40:26.703Z,68.57
2024-01-19T19:42:53.394Z,68.30
2024-01-19T19:45:23.226Z,69.42
2024-01-19T19:47:51.344Z,69.10
2024-01-19T19:50:18.390Z,69.24
2024-01-19T19:52:45.119Z,69.15
2024-01-19T19:55:11.841Z,69.03
2024-01-19T19:57:38.968Z,68.55
2024-01-19T20:00:06.245Z,69.47
2024-01-19T20:02:34.185Z,69.09
2024-01-19T20:05:01.014Z,68.73
2024-01-19T20:07:27.720Z,68.87
2024-01-19T20:09:54.432Z,69.61
2024-01-19T20:12:21.209Z,69.57
2024-01-19T20:14:48.289Z,68.90
2024-01-19T20:17:17.582Z,70.20
2024-01-19T20:19:47.769Z,69.64
2024-01-19T20:22:19.122Z,69.09
2024-01-19T20:24:49.043Z,69.51
2024-01-19T20:27:19.139Z,69.57
2024-01-19T20:29:46.113Z,70.15
2024-01-19T20:32:12.978Z,68.67
2024-01-19T20:34:42.536Z,69.16
2024-01-19T20:37:18.941Z,68.84
2024-01-19T20:39:48.304Z,69.15
2024-01-19T20:42:14.989Z,69.77
2024-01-19T20:44:41.762Z,70.71
2024-01-19T20:47:08.549Z,69.72
2024-01-19T20:49:35.336Z,69.87
2024-01-19T20:52:01.999Z,70.69
2024-01-19T20:54:33.683Z,70.16
2024-01-19T20:57:00.542Z,70.14
2024-01-19T20:59:27.357Z,69.83
2024-01-19T21:01:56.603Z,69.91
2024-01-19T21:04:25.794Z,70.13
2024-01-19T21:06:52.637Z,70.25
2024-01-19T21:09:20.436Z,70.74
2024-01-19T21:11:48.393Z,70.78
2024-01-19T21:14:15.364Z,69.85
2024-01-19T21:16:45.049Z,70.58
2024-01-19T21:19:12.528Z,70.63
2024-01-19T21:21:39.488Z,70.46
2024-01-19T21:24:06.488Z,70.57
2024-01-19T21:26:33.288Z,71.26
2024-01-19T21:29:00.129Z,71.09
2024-01-19T21:31:29.802Z,70.98
2024-01-19T21:33:56.471Z,70.71
2024-01-19T21:36:23.460Z,71.26
2024-01-19T21:38:53.267Z,70.73
2024-01-19T21:41:20.229Z,70.25
2024-01-19T21:43:47.818Z,70.94
2024-01-19T21:46:16.399Z,70.26
2024-01-19T21:48:43.612Z,71.09
2024-01-19T21:51:11.119Z,71.13
2024-01-19T21:53:39.447Z,70.18
2024-01-19T21:56:08.766Z,71.28
2024-01-19T21:58:37.730Z,70.09
2024-01-19T22:01:05.436Z,70.61
2024-01-19T22:03:32.233Z,70.76
2024-01-19T22:06:01.498Z,71.15
2024-01-19T22:08:31.298Z,70.42
2024-01-19T22:10:58.276Z,70.85
2024-01-19T22:13:27.344Z,71.31
2024-01-19T22:15:53.989Z,70.46
2024-01-19T22:18:21.720Z,70.69
2024-01-19T22:20:51.057Z,70.25
2024-01-19T22:23:19.998Z,71.17
2024-01-19T22:25:46.779Z,71.32
2024-01-19T22:28:13.628Z,71.36
2024-01-19T22:30:40.783Z,71.16
2024-01-19T22:33:10.583Z,70.55
2024-01-19T22:35:37.362Z,70.86
2024-01-19T22:38:05.352Z,71.13
2024-01-19T22:40:32.165Z,70.42
2024-01-19T22:42:59.106Z,70.49
2024-01-19T22:45:25.957Z,70.67
2024-01-19T22:47:52.707Z,71.08
2024-01-19T22:50:21.732Z,70.42
2024-01-19T22:52:50.831Z,70.77
2024-01-19T22:55:20.160Z,70.31
2024-01-19T22:57:48.275Z,70.56
2024-01-19T23:00:20.536Z,71.04
2024-01-19T23:02:47.455Z,70.63
2024-01-19T23:05:14.318Z,70.09
2024-01-19T23:07:41.949Z,71.22
2024-01-19T23:10:10.150Z,70.82
2024-01-19T23:12:36.879Z,70.23
2024-01-19T23:15:06.803Z,71.36
2024-01-19T23:17:33.596Z,70.78
2024-01-19T23:20:00.541Z,71.24
2024-01-19T23:22:27.923Z,71.02
2024-01-19T23:24:54.591Z,70.53
2024-01-19T23:27:23.570Z,70.97
2024-01-19T23:29:50.267Z,70.52
2024-01-19T23:32:17.584Z,71.42
2024-01-19T23:34:44.495Z,71.49
2024-01-19T23:37:11.740Z,71.15
2024-01-19T23:39:40.684Z,71.54
2024-01-19T23:42:07.469Z,71.65
2024-01-19T23:44:34.195Z,71.44
2024-01-19T23:47:00.961Z,71.23
2024-01-19T23:49:30.851Z,71.81
2024-01-19T23:51:59.416Z,71.03
2024-01-19T23:54:26.072Z,71.23
2024-01-19T23:56:55.048Z,71.21
2024-01-19T23:59:21.809Z,72.11
